createdAt,value
2022-07-31T00:01:14.135Z,8.75
2022-07-31T00:02:47.077Z,9.05
2022-07-31T00:04:19.229Z,8.82
2022-07-31T00:05:51.281Z,8.82
2022-07-31T00:07:23.445Z,9.32
2022-07-31T00:08:55.477Z,9.40
2022-07-31T00:10:27.567Z,10.02
2022-07-31T00:11:59.649Z,9.50
2022-07-31T00:13:56.798Z,9.68
2022-07-31T00:15:23.842Z,10.05
2022-07-31T00:16:56.081Z,10.07
2022-07-31T00:18:28.129Z,9.95
2022-07-31T00:20:00.297Z,10.70
2022-07-31T00:21:32.391Z,11.18
2022-07-31T00:23:04.415Z,11.07
2022-07-31T00:24:36.399Z,10.77
2022-07-31T00:26:08.454Z,10.65
2022-07-31T00:27:41.487Z,9.98
2022-07-31T00:29:16.100Z,10.35
2022-07-31T00:30:48.468Z,9.40
2022-07-31T00:32:21.715Z,10.25
2022-07-31T00:35:25.707Z,9.75
2022-07-31T00:36:58.013Z,9.25
2022-07-31T00:38:30.303Z,10.57
2022-07-31T00:40:02.541Z,10.15
2022-07-31T00:41:44.061Z,9.98
2022-07-31T00:43:16.611Z,10.43
2022-07-31T00:44:48.720Z,9.15
2022-07-31T00:46:20.721Z,9.95
2022-07-31T00:47:55.903Z,8.88
2022-07-31T00:49:37.282Z,9.35
2022-07-31T00:51:10.542Z,9.52
2022-07-31T00:54:22.576Z,9.23
2022-07-31T00:55:55.232Z,10.30
2022-07-31T00:57:27.293Z,10.00
2022-07-31T00:59:01.819Z,9.77
2022-07-31T01:00:34.014Z,9.10
2022-07-31T01:02:06.314Z,9.52
2022-07-31T01:03:38.398Z,9.60
2022-07-31T01:05:10.480Z,9.40
2022-07-31T01:06:42.887Z,9.15
2022-07-31T01:08:15.636Z,10.25
2022-07-31T01:09:49.465Z,9.32
2022-07-31T01:11:31.213Z,8.98
2022-07-31T01:14:41.278Z,9.77
2022-07-31T01:16:13.840Z,9.13
2022-07-31T01:17:48.137Z,9.73
2022-07-31T01:19:46.663Z,9.90
2022-07-31T01:21:22.188Z,10.80
2022-07-31T01:23:17.534Z,10.00
2022-07-31T01:25:12.723Z,9.73
2022-07-31T01:27:00.238Z,9.43
2022-07-31T01:28:53.172Z,10.13
2022-07-31T01:30:31.044Z,10.27
2022-07-31T01:32:09.453Z,9.68
2022-07-31T01:33:47.909Z,10.95
2022-07-31T01:35:33.657Z,10.13
2022-07-31T01:37:30.881Z,9.82
2022-07-31T01:39:04.033Z,10.50
2022-07-31T01:40:40.590Z,9.57
2022-07-31T01:42:14.945Z,9.55
2022-07-31T01:43:48.743Z,9.57
2022-07-31T01:45:21.711Z,9.55
2022-07-31T01:46:58.976Z,9.57
2022-07-31T01:48:35.455Z,9.63
2022-07-31T01:50:09.151Z,9.05
2022-07-31T01:52:02.850Z,9.48
2022-07-31T01:53:41.498Z,9.82
2022-07-31T01:55:15.448Z,9.68
2022-07-31T01:56:49.309Z,10.63
2022-07-31T01:58:23.144Z,9.73
2022-07-31T01:59:57.290Z,10.13
2022-07-31T02:01:29.779Z,9.80
2022-07-31T02:03:09.830Z,10.60
2022-07-31T02:04:42.716Z,9.50
2022-07-31T02:06:16.640Z,9.77
2022-07-31T02:07:49.513Z,10.38
2022-07-31T02:09:22.285Z,10.02
2022-07-31T02:10:55.163Z,9.57
2022-07-31T02:12:32.017Z,9.10
2022-07-31T02:14:06.208Z,9.85
2022-07-31T02:15:38.858Z,9.85
2022-07-31T02:17:12.385Z,10.85
2022-07-31T02:18:44.418Z,9.93
2022-07-31T02:20:16.605Z,10.05
2022-07-31T02:21:48.627Z,10.52
2022-07-31T02:23:20.856Z,9.38
2022-07-31T02:24:52.937Z,9.20
2022-07-31T02:26:26.401Z,9.18
2022-07-31T02:27:59.374Z,10.00
2022-07-31T02:29:32.899Z,10.63
2022-07-31T02:31:07.031Z,9.20
2022-07-31T02:32:39.861Z,8.98
2022-07-31T02:34:14.246Z,9.27
2022-07-31T02:35:49.298Z,9.65
2022-07-31T02:37:22.737Z,8.30
2022-07-31T02:38:56.447Z,8.38
2022-07-31T02:40:28.927Z,7.85
2022-07-31T02:42:02.116Z,8.68
2022-07-31T02:43:35.754Z,7.78
2022-07-31T02:45:11.221Z,8.65
2022-07-31T02:46:45.090Z,8.27
2022-07-31T02:48:17.344Z,8.32
2022-07-31T02:49:50.052Z,9.38
2022-07-31T02:51:23.083Z,8.00
2022-07-31T02:52:56.093Z,8.75
2022-07-31T02:54:28.341Z,8.10
2022-07-31T02:56:02.042Z,8.25
2022-07-31T02:57:34.115Z,7.88
2022-07-31T02:59:07.406Z,8.15
2022-07-31T03:02:11.658Z,7.82
2022-07-31T03:03:43.766Z,8.13
2022-07-31T03:05:16.605Z,8.23
2022-07-31T03:06:51.361Z,8.52
2022-07-31T03:08:23.482Z,8.50
2022-07-31T03:09:57.995Z,7.80
2022-07-31T03:11:30.100Z,8.35
2022-07-31T03:13:03.903Z,8.32
2022-07-31T03:14:36.289Z,7.82
2022-07-31T03:16:11.755Z,8.17
2022-07-31T03:17:45.120Z,9.18
2022-07-31T03:19:20.191Z,8.30
2022-07-31T03:20:55.574Z,8.52
2022-07-31T03:22:27.667Z,9.57
2022-07-31T03:23:59.990Z,8.73
2022-07-31T03:25:33.775Z,8.82
2022-07-31T03:27:05.836Z,9.02
2022-07-31T03:28:38.051Z,9.65
2022-07-31T03:30:17.214Z,9.48
2022-07-31T03:31:49.336Z,9.05
2022-07-31T03:33:22.505Z,9.30
2022-07-31T03:34:54.542Z,8.75
2022-07-31T03:36:27.572Z,8.60
2022-07-31T03:37:59.637Z,8.65
2022-07-31T03:39:31.870Z,8.10
2022-07-31T03:41:03.950Z,8.15
2022-07-31T03:42:36.005Z,8.07
2022-07-31T03:44:08.839Z,8.52
2022-07-31T03:45:41.129Z,8.20
2022-07-31T03:47:13.241Z,8.48
2022-07-31T03:48:52.573Z,9.18
2022-07-31T03:50:25.534Z,9.35
2022-07-31T03:51:57.681Z,8.73
2022-07-31T03:53:29.813Z,8.93
2022-07-31T03:55:02.216Z,9.32
2022-07-31T03:56:35.095Z,9.57
2022-07-31T03:58:07.717Z,8.45
2022-07-31T03:59:48.233Z,9.32
2022-07-31T04:01:21.882Z,9.10
2022-07-31T04:02:58.541Z,8.80
2022-07-31T04:04:30.765Z,8.50
2022-07-31T04:06:02.899Z,9.55
2022-07-31T04:07:34.964Z,8.63
2022-07-31T04:09:15.592Z,9.38
2022-07-31T04:10:51.841Z,8.95
2022-07-31T04:12:23.915Z,8.50
2022-07-31T04:13:56.363Z,8.77
2022-07-31T04:15:28.561Z,8.55
2022-07-31T04:17:00.590Z,9.30
2022-07-31T04:18:32.727Z,9.00
2022-07-31T04:20:05.867Z,8.60
2022-07-31T04:23:10.132Z,8.48
2022-07-31T04:24:44.719Z,9.18
2022-07-31T04:26:20.057Z,9.00
2022-07-31T04:27:58.580Z,9.98
2022-07-31T04:29:30.876Z,9.18
2022-07-31T04:31:02.957Z,9.18
2022-07-31T04:32:36.351Z,8.52
2022-07-31T04:34:08.745Z,8.90
2022-07-31T04:35:42.454Z,9.23
2022-07-31T04:37:14.509Z,9.30
2022-07-31T04:38:46.932Z,11.07
2022-07-31T04:40:19.221Z,9.80
2022-07-31T04:41:51.984Z,9.95
2022-07-31T04:43:24.430Z,10.25
2022-07-31T04:44:56.497Z,10.43
2022-07-31T04:46:28.808Z,9.93
2022-07-31T04:48:00.946Z,10.40
2022-07-31T04:49:33.452Z,10.23
2022-07-31T04:51:05.518Z,10.52
2022-07-31T04:52:37.595Z,10.27
2022-07-31T04:54:10.614Z,10.73
2022-07-31T04:55:42.736Z,9.68
2022-07-31T04:57:17.404Z,10.73
2022-07-31T04:58:52.204Z,10.18
2022-07-31T05:00:25.205Z,10.87
2022-07-31T05:01:57.330Z,11.43
2022-07-31T05:03:29.591Z,11.52
2022-07-31T05:05:01.910Z,10.55
2022-07-31T05:06:37.962Z,11.13
2022-07-31T05:08:10.311Z,10.00
2022-07-31T05:09:42.358Z,10.10
2022-07-31T05:11:23.806Z,11.43
2022-07-31T05:12:55.959Z,11.05
2022-07-31T05:14:28.370Z,10.75
2022-07-31T05:16:00.544Z,12.00
2022-07-31T05:17:32.561Z,11.75
2022-07-31T05:19:05.796Z,10.27
2022-07-31T05:20:46.129Z,10.43
2022-07-31T05:22:18.883Z,10.18
2022-07-31T05:23:51.598Z,10.18
2022-07-31T05:25:23.648Z,10.52
2022-07-31T05:26:55.929Z,10.07
2022-07-31T05:28:29.936Z,9.40
2022-07-31T05:30:02.794Z,9.82
2022-07-31T05:31:34.986Z,10.65
2022-07-31T05:33:07.238Z,9.40
2022-07-31T05:34:39.837Z,8.60
2022-07-31T05:36:12.645Z,9.30
2022-07-31T05:39:18.459Z,9.52
2022-07-31T05:40:50.712Z,9.30
2022-07-31T05:42:22.905Z,9.75
2022-07-31T05:43:55.075Z,9.23
2022-07-31T05:45:27.192Z,8.68
2022-07-31T05:48:30.767Z,8.07
2022-07-31T05:50:04.921Z,8.10
2022-07-31T05:51:37.784Z,8.77
2022-07-31T05:53:15.591Z,8.68
2022-07-31T05:54:48.151Z,8.05
2022-07-31T05:56:20.214Z,8.10
2022-07-31T05:57:52.705Z,8.07
2022-07-31T05:59:25.101Z,7.80
2022-07-31T06:00:57.295Z,6.57
2022-07-31T06:02:29.336Z,7.60
2022-07-31T06:04:02.917Z,8.23
2022-07-31T06:05:35.292Z,8.13
2022-07-31T06:07:07.511Z,7.60
2022-07-31T06:08:39.996Z,6.68
2022-07-31T06:10:12.467Z,6.85
2022-07-31T06:11:44.796Z,7.10
2022-07-31T06:13:17.198Z,7.23
2022-07-31T06:14:49.952Z,7.07
2022-07-31T06:16:21.994Z,6.95
2022-07-31T06:17:54.110Z,6.95
2022-07-31T06:19:26.287Z,6.90
2022-07-31T06:20:58.405Z,7.15
2022-07-31T06:22:30.746Z,6.85
2022-07-31T06:24:02.836Z,6.80
2022-07-31T06:25:38.845Z,5.80
2022-07-31T06:27:20.805Z,5.60
2022-07-31T06:29:04.889Z,6.18
2022-07-31T06:30:37.550Z,5.97
2022-07-31T06:32:09.850Z,6.20
2022-07-31T06:33:42.136Z,6.93
2022-07-31T06:35:20.481Z,6.40
2022-07-31T06:36:52.922Z,6.15
2022-07-31T06:38:25.176Z,5.88
2022-07-31T06:39:57.453Z,5.63
2022-07-31T06:43:27.423Z,6.35
2022-07-31T06:45:00.081Z,5.70
2022-07-31T06:46:32.634Z,5.43
2022-07-31T06:48:05.001Z,5.80
2022-07-31T06:49:37.386Z,5.43
2022-07-31T06:51:30.235Z,5.95
2022-07-31T06:53:03.847Z,5.93
2022-07-31T06:54:36.259Z,5.50
2022-07-31T06:56:08.716Z,5.53
2022-07-31T06:57:41.299Z,5.90
2022-07-31T06:59:13.604Z,6.47
2022-07-31T07:01:05.955Z,6.80
2022-07-31T07:02:38.286Z,6.35
2022-07-31T07:04:10.865Z,6.27
2022-07-31T07:05:45.469Z,5.72
2022-07-31T07:07:18.010Z,6.97
2022-07-31T07:08:50.801Z,6.22
2022-07-31T07:10:23.283Z,7.47
2022-07-31T07:11:55.872Z,7.32
2022-07-31T07:13:45.072Z,7.18
2022-07-31T07:15:18.818Z,6.80
2022-07-31T07:16:51.217Z,7.28
2022-07-31T07:18:23.475Z,7.22
2022-07-31T07:19:56.156Z,8.03
2022-07-31T07:21:28.465Z,7.90
2022-07-31T07:23:00.782Z,6.37
2022-07-31T07:24:33.375Z,6.50
2022-07-31T07:26:06.708Z,7.72
2022-07-31T07:27:39.166Z,7.20
2022-07-31T07:29:11.690Z,7.47
2022-07-31T07:30:44.497Z,7.57
2022-07-31T07:32:17.300Z,7.63
2022-07-31T07:33:51.912Z,7.97
2022-07-31T07:35:24.170Z,8.07
2022-07-31T07:36:56.460Z,7.67
2022-07-31T07:38:28.753Z,7.47
2022-07-31T07:40:02.461Z,8.50
2022-07-31T07:41:36.173Z,7.70
2022-07-31T07:43:08.556Z,8.35
2022-07-31T07:44:40.942Z,8.00
2022-07-31T07:46:13.298Z,7.65
2022-07-31T07:48:05.418Z,8.15
2022-07-31T07:49:38.321Z,7.47
2022-07-31T07:51:10.657Z,7.88
2022-07-31T07:52:44.040Z,7.87
2022-07-31T07:54:16.981Z,8.70
2022-07-31T07:55:49.447Z,7.72
2022-07-31T07:57:22.344Z,7.82
2022-07-31T07:58:54.625Z,8.02
2022-07-31T08:00:27.001Z,8.20
2022-07-31T08:01:59.313Z,7.65
2022-07-31T08:03:49.288Z,8.00
2022-07-31T08:05:23.898Z,8.20
2022-07-31T08:06:56.383Z,7.60
2022-07-31T08:08:28.755Z,7.60
2022-07-31T08:10:01.266Z,8.07
2022-07-31T08:11:33.512Z,7.97
2022-07-31T08:13:06.195Z,8.02
2022-07-31T08:14:38.674Z,7.82
2022-07-31T08:16:11.068Z,7.70
2022-07-31T08:17:43.439Z,7.30
2022-07-31T08:19:15.885Z,7.18
2022-07-31T08:20:50.865Z,7.55
2022-07-31T08:22:23.436Z,7.25
2022-07-31T08:23:55.875Z,6.68
2022-07-31T08:25:31.962Z,6.97
2022-07-31T08:27:23.438Z,7.45
2022-07-31T08:29:12.052Z,7.53
2022-07-31T08:30:44.581Z,6.88
2022-07-31T08:32:17.918Z,6.75
2022-07-31T08:33:50.272Z,7.28
2022-07-31T08:35:22.597Z,6.95
2022-07-31T08:36:54.970Z,7.10
2022-07-31T08:38:27.295Z,7.10
2022-07-31T08:40:00.248Z,7.80
2022-07-31T08:41:39.117Z,7.55
2022-07-31T08:44:02.129Z,6.90
2022-07-31T08:45:09.389Z,7.60
2022-07-31T08:46:42.276Z,8.02
2022-07-31T08:48:15.310Z,7.72
2022-07-31T08:49:49.752Z,7.82
2022-07-31T08:51:24.438Z,7.10
2022-07-31T08:52:57.774Z,7.35
2022-07-31T08:54:32.369Z,6.47
2022-07-31T08:56:06.500Z,7.68
2022-07-31T08:57:39.598Z,7.30
2022-07-31T08:59:12.094Z,6.75
2022-07-31T09:00:44.641Z,6.85
2022-07-31T09:02:17.406Z,6.93
2022-07-31T09:03:49.764Z,6.32
2022-07-31T09:05:22.442Z,6.63
2022-07-31T09:06:55.240Z,6.28
2022-07-31T09:08:27.641Z,6.28
2022-07-31T09:10:00.172Z,6.80
2022-07-31T09:11:32.655Z,7.03
2022-07-31T09:13:14.732Z,6.78
2022-07-31T09:14:49.891Z,6.90
2022-07-31T09:16:24.316Z,6.70
2022-07-31T09:18:03.329Z,6.68
2022-07-31T09:19:52.200Z,6.50
2022-07-31T09:21:27.028Z,7.05
2022-07-31T09:23:07.941Z,7.13
2022-07-31T09:24:43.214Z,7.00
2022-07-31T09:26:15.803Z,7.03
2022-07-31T09:27:49.235Z,6.00
2022-07-31T09:29:36.271Z,6.57
2022-07-31T09:31:10.315Z,6.97
2022-07-31T09:32:43.687Z,7.20
2022-07-31T09:34:26.696Z,6.75
2022-07-31T09:36:01.694Z,6.45
2022-07-31T09:37:33.934Z,5.03
2022-07-31T09:39:15.116Z,5.37
2022-07-31T09:41:56.314Z,5.50
2022-07-31T09:43:15.721Z,4.85
2022-07-31T09:44:49.024Z,4.63
2022-07-31T09:46:21.408Z,5.20
2022-07-31T09:48:06.885Z,5.18
2022-07-31T09:49:39.420Z,5.20
2022-07-31T09:51:12.250Z,5.18
2022-07-31T09:52:44.909Z,5.30
2022-07-31T09:54:25.987Z,5.22
2022-07-31T09:55:58.792Z,5.40
2022-07-31T09:57:31.299Z,5.57
2022-07-31T09:59:03.971Z,6.32
2022-07-31T10:00:37.840Z,5.60
2022-07-31T10:02:14.279Z,5.47
2022-07-31T10:03:50.686Z,5.50
2022-07-31T10:05:26.970Z,6.35
2022-07-31T10:06:59.646Z,5.90
2022-07-31T10:08:36.046Z,5.97
2022-07-31T10:10:09.479Z,5.20
2022-07-31T10:11:42.924Z,5.85
2022-07-31T10:13:16.863Z,5.55
2022-07-31T10:14:51.760Z,5.88
2022-07-31T10:16:26.105Z,5.15
2022-07-31T10:17:58.801Z,5.47
2022-07-31T10:19:37.042Z,5.25
2022-07-31T10:21:12.100Z,4.93
2022-07-31T10:22:54.785Z,5.90
2022-07-31T10:24:30.338Z,5.10
2022-07-31T10:26:03.508Z,5.63
2022-07-31T10:27:39.410Z,5.15
2022-07-31T10:29:12.246Z,5.03
2022-07-31T10:30:46.789Z,5.22
2022-07-31T10:32:19.169Z,4.53
2022-07-31T10:33:52.902Z,3.30
2022-07-31T10:35:25.813Z,3.65
2022-07-31T10:37:03.081Z,4.00
2022-07-31T10:38:51.895Z,4.03
2022-07-31T10:40:30.236Z,4.65
2022-07-31T10:42:34.651Z,4.57
2022-07-31T10:45:59.638Z,4.07
2022-07-31T10:47:32.261Z,4.35
2022-07-31T10:49:08.933Z,4.25
2022-07-31T10:50:41.529Z,4.30
2022-07-31T10:52:13.831Z,4.18
2022-07-31T10:54:01.477Z,3.95
2022-07-31T10:55:35.783Z,3.72
2022-07-31T10:57:08.137Z,4.50
2022-07-31T10:58:55.817Z,5.10
2022-07-31T11:00:29.673Z,4.30
2022-07-31T11:02:02.452Z,3.70
2022-07-31T11:03:48.934Z,4.50
2022-07-31T11:05:28.255Z,4.03
2022-07-31T11:07:00.679Z,4.72
2022-07-31T11:08:46.014Z,4.63
2022-07-31T11:10:22.497Z,4.50
2022-07-31T11:11:55.753Z,4.55
2022-07-31T11:13:36.666Z,5.20
2022-07-31T11:15:23.853Z,4.60
2022-07-31T11:16:59.313Z,4.20
2022-07-31T11:18:34.442Z,4.50
2022-07-31T11:20:08.038Z,4.40
2022-07-31T11:21:42.713Z,4.20
2022-07-31T11:23:18.002Z,4.35
2022-07-31T11:24:56.496Z,4.20
2022-07-31T11:26:32.805Z,5.20
2022-07-31T11:28:13.056Z,4.50
2022-07-31T11:30:01.280Z,4.60
2022-07-31T11:31:35.715Z,4.40
2022-07-31T11:33:08.001Z,4.72
2022-07-31T11:34:54.448Z,4.77
2022-07-31T11:36:27.493Z,4.70
2022-07-31T11:39:36.962Z,5.18
2022-07-31T11:41:10.214Z,4.60
2022-07-31T11:42:52.530Z,4.70
2022-07-31T11:44:32.412Z,4.70
2022-07-31T11:46:05.884Z,4.38
2022-07-31T11:48:11.700Z,4.50
2022-07-31T11:49:47.807Z,4.70
2022-07-31T11:51:22.528Z,5.20
2022-07-31T11:54:35.396Z,4.72
2022-07-31T11:57:52.562Z,4.47
2022-07-31T11:59:45.368Z,4.35
2022-07-31T12:01:19.624Z,4.75
2022-07-31T12:04:24.765Z,4.35
2022-07-31T12:05:57.601Z,4.32
2022-07-31T12:07:29.999Z,4.82
2022-07-31T12:09:02.429Z,4.88
2022-07-31T12:10:34.662Z,4.70
2022-07-31T12:12:08.129Z,4.70
2022-07-31T12:13:40.603Z,4.90
2022-07-31T12:15:16.537Z,4.20
2022-07-31T12:16:48.841Z,4.32
2022-07-31T12:18:21.282Z,5.00
2022-07-31T12:19:57.727Z,4.80
2022-07-31T12:21:35.985Z,5.05
2022-07-31T12:23:08.386Z,4.35
2022-07-31T12:25:07.315Z,4.68
2022-07-31T12:26:44.912Z,4.38
2022-07-31T12:28:17.930Z,5.43
2022-07-31T12:31:22.355Z,4.88
2022-07-31T12:33:05.702Z,4.45
2022-07-31T12:34:39.927Z,4.68
2022-07-31T12:36:16.199Z,4.63
2022-07-31T12:37:50.008Z,4.80
2022-07-31T12:39:22.470Z,4.90
2022-07-31T12:41:05.344Z,4.68
2022-07-31T12:42:41.901Z,4.35
2022-07-31T12:44:14.989Z,4.85
2022-07-31T12:45:54.731Z,4.60
2022-07-31T12:49:00.227Z,4.45
2022-07-31T12:50:34.199Z,4.53
2022-07-31T12:52:06.434Z,4.47
2022-07-31T12:53:38.867Z,4.27
2022-07-31T12:55:11.327Z,5.25
2022-07-31T12:56:44.191Z,4.30
2022-07-31T12:58:16.697Z,5.07
2022-07-31T12:59:49.065Z,4.43
2022-07-31T13:01:21.489Z,5.30
2022-07-31T13:02:55.228Z,5.35
2022-07-31T13:04:27.679Z,4.90
2022-07-31T13:05:59.876Z,4.47
2022-07-31T13:07:32.418Z,4.37
2022-07-31T13:09:05.210Z,4.43
2022-07-31T13:10:37.739Z,4.40
2022-07-31T13:12:13.940Z,4.22
2022-07-31T13:13:46.487Z,4.65
2022-07-31T13:15:21.031Z,4.65
2022-07-31T13:16:55.792Z,4.18
2022-07-31T13:18:30.368Z,4.07
2022-07-31T13:20:02.725Z,4.53
2022-07-31T13:21:48.411Z,4.30
2022-07-31T13:23:22.237Z,4.57
2022-07-31T13:24:54.459Z,3.88
2022-07-31T13:26:29.498Z,3.55
2022-07-31T13:28:01.806Z,3.92
2022-07-31T13:29:34.489Z,3.97
2022-07-31T13:31:06.839Z,3.85
2022-07-31T13:32:39.056Z,4.03
2022-07-31T13:34:11.607Z,4.45
2022-07-31T13:35:43.955Z,4.03
2022-07-31T13:37:16.461Z,4.03
2022-07-31T13:38:48.766Z,4.20
2022-07-31T13:40:41.022Z,4.25
2022-07-31T13:42:13.382Z,3.85
2022-07-31T13:44:00.410Z,4.45
2022-07-31T13:45:33.065Z,4.30
2022-07-31T13:47:05.776Z,4.05
2022-07-31T13:48:38.289Z,4.50
2022-07-31T13:50:10.475Z,3.95
2022-07-31T13:51:42.787Z,4.13
2022-07-31T13:53:15.190Z,4.57
2022-07-31T13:54:47.639Z,4.30
2022-07-31T13:56:38.894Z,4.50
2022-07-31T13:58:12.890Z,3.78
2022-07-31T13:59:45.535Z,4.80
2022-07-31T14:01:17.965Z,4.47
2022-07-31T14:02:50.620Z,5.40
2022-07-31T14:04:23.948Z,4.22
2022-07-31T14:05:56.365Z,5.10
2022-07-31T14:07:45.114Z,4.70
2022-07-31T14:09:18.262Z,4.28
2022-07-31T14:10:50.879Z,4.80
2022-07-31T14:12:24.662Z,4.63
2022-07-31T14:13:56.916Z,4.20
2022-07-31T14:17:07.185Z,3.88
2022-07-31T14:18:39.622Z,3.85
2022-07-31T14:20:12.765Z,4.00
2022-07-31T14:21:55.991Z,3.78
2022-07-31T14:23:35.198Z,3.53
2022-07-31T14:25:10.558Z,3.63
2022-07-31T14:28:16.271Z,3.65
2022-07-31T14:29:48.986Z,3.90
2022-07-31T14:31:21.460Z,3.50
2022-07-31T14:32:55.166Z,3.35
2022-07-31T14:34:35.238Z,3.75
2022-07-31T14:36:08.382Z,3.45
2022-07-31T14:37:42.259Z,3.72
2022-07-31T14:39:14.768Z,3.47
2022-07-31T14:40:47.099Z,3.22
2022-07-31T14:42:22.388Z,3.40
2022-07-31T14:43:57.972Z,3.25
2022-07-31T14:45:32.945Z,3.80
2022-07-31T14:47:23.962Z,3.67
2022-07-31T14:48:56.502Z,3.83
2022-07-31T14:50:28.801Z,3.42
2022-07-31T14:52:01.504Z,3.23
2022-07-31T14:53:33.805Z,3.38
2022-07-31T14:55:06.819Z,3.65
2022-07-31T14:58:34.302Z,3.15
2022-07-31T15:00:26.381Z,3.15
2022-07-31T15:02:00.420Z,3.25
2022-07-31T15:03:32.880Z,2.90
2022-07-31T15:06:38.695Z,2.90
2022-07-31T15:07:13.183Z,2.90
2022-07-31T15:08:50.242Z,2.95
2022-07-31T15:10:22.574Z,3.45
2022-07-31T15:13:38.565Z,3.00
2022-07-31T15:15:11.735Z,3.30
2022-07-31T15:16:44.370Z,3.03
2022-07-31T15:18:24.585Z,3.33
2022-07-31T15:19:58.421Z,3.08
2022-07-31T15:21:30.701Z,3.08
2022-07-31T15:23:03.328Z,3.40
2022-07-31T15:24:35.730Z,3.35
2022-07-31T15:26:08.069Z,3.30
2022-07-31T15:27:40.357Z,3.15
2022-07-31T15:29:12.971Z,3.30
2022-07-31T15:30:45.606Z,3.33
2022-07-31T15:32:18.011Z,3.25
2022-07-31T15:33:50.815Z,3.47
2022-07-31T15:35:23.228Z,3.03
2022-07-31T15:36:55.472Z,2.92
2022-07-31T15:38:27.906Z,3.00
2022-07-31T15:40:02.981Z,3.20
2022-07-31T15:41:35.785Z,3.47
2022-07-31T15:43:08.165Z,3.08
2022-07-31T15:44:40.430Z,3.78
2022-07-31T15:46:12.991Z,3.28
2022-07-31T15:47:46.438Z,3.65
2022-07-31T15:49:18.799Z,3.20
2022-07-31T15:50:51.154Z,3.53
2022-07-31T15:52:23.204Z,3.77
2022-07-31T15:53:55.583Z,3.47
2022-07-31T15:55:32.125Z,3.88
2022-07-31T15:57:04.630Z,3.72
2022-07-31T15:58:37.328Z,3.70
2022-07-31T16:00:11.887Z,3.40
2022-07-31T16:01:44.035Z,3.63
2022-07-31T16:03:17.778Z,3.37
2022-07-31T16:04:52.898Z,3.55
2022-07-31T16:06:28.067Z,3.70
2022-07-31T16:08:31.473Z,3.83
2022-07-31T16:10:14.804Z,3.67
2022-07-31T16:12:04.602Z,3.75
2022-07-31T16:13:37.954Z,4.00
2022-07-31T16:15:12.926Z,3.42
2022-07-31T16:16:46.022Z,3.70
2022-07-31T16:18:18.902Z,3.42
2022-07-31T16:19:51.303Z,3.53
2022-07-31T16:21:23.774Z,3.58
2022-07-31T16:23:01.617Z,3.30
2022-07-31T16:24:36.930Z,3.38
2022-07-31T16:26:09.378Z,3.25
2022-07-31T16:27:41.684Z,3.20
2022-07-31T16:29:17.250Z,3.90
2022-07-31T16:30:51.060Z,6.25
2022-07-31T16:32:23.518Z,5.50
2022-07-31T16:33:55.972Z,4.30
2022-07-31T16:35:28.345Z,3.30
2022-07-31T16:37:00.452Z,3.42
2022-07-31T16:38:32.868Z,3.10
2022-07-31T16:40:06.581Z,3.10
2022-07-31T16:41:54.466Z,3.40
2022-07-31T16:43:50.348Z,3.00
2022-07-31T16:45:20.907Z,3.20
2022-07-31T16:46:55.003Z,3.10
2022-07-31T16:48:27.438Z,3.13
2022-07-31T16:49:59.878Z,3.55
2022-07-31T16:51:32.344Z,3.40
2022-07-31T16:53:04.560Z,3.10
2022-07-31T16:54:36.868Z,3.60
2022-07-31T16:56:10.379Z,3.08
2022-07-31T16:57:45.203Z,3.35
2022-07-31T16:59:17.410Z,2.88
2022-07-31T17:00:49.828Z,3.00
2022-07-31T17:02:22.099Z,3.22
2022-07-31T17:04:01.526Z,2.60
2022-07-31T17:05:35.491Z,2.85
2022-07-31T17:07:08.001Z,2.92
2022-07-31T17:08:40.456Z,2.83
2022-07-31T17:10:12.759Z,2.83
2022-07-31T17:11:52.688Z,2.75
2022-07-31T17:13:25.069Z,2.50
2022-07-31T17:14:57.650Z,2.88
2022-07-31T17:16:30.087Z,2.70
2022-07-31T17:18:02.512Z,2.90
2022-07-31T17:19:40.973Z,2.92
2022-07-31T17:21:17.926Z,2.92
2022-07-31T17:22:55.363Z,2.97
2022-07-31T17:24:27.480Z,3.22
2022-07-31T17:26:00.538Z,2.95
2022-07-31T17:27:33.673Z,2.70
2022-07-31T17:30:39.417Z,2.92
2022-07-31T17:32:11.745Z,3.08
2022-07-31T17:33:59.262Z,2.83
2022-07-31T17:35:34.784Z,3.67
2022-07-31T17:37:07.956Z,3.40
2022-07-31T17:38:40.931Z,2.97
2022-07-31T17:40:41.819Z,3.03
2022-07-31T17:43:49.977Z,3.10
2022-07-31T17:45:26.924Z,3.08
2022-07-31T17:47:20.623Z,2.90
2022-07-31T17:48:53.337Z,2.70
2022-07-31T17:50:25.736Z,2.90
2022-07-31T17:51:59.776Z,2.95
2022-07-31T17:53:55.135Z,3.20
2022-07-31T17:55:25.368Z,3.22
2022-07-31T17:56:57.881Z,3.80
2022-07-31T17:58:31.543Z,3.97
2022-07-31T18:00:07.177Z,3.80
2022-07-31T18:01:39.555Z,4.80
2022-07-31T18:03:11.999Z,3.58
2022-07-31T18:04:44.321Z,3.03
2022-07-31T18:06:16.575Z,3.30
2022-07-31T18:07:51.964Z,2.80
2022-07-31T18:09:25.179Z,3.10
2022-07-31T18:12:29.414Z,2.83
2022-07-31T18:14:24.603Z,3.45
2022-07-31T18:15:57.178Z,3.17
2022-07-31T18:17:31.710Z,3.00
2022-07-31T18:19:04.776Z,2.90
2022-07-31T18:20:37.245Z,3.40
2022-07-31T18:22:09.915Z,3.22
2022-07-31T18:23:47.256Z,2.97
2022-07-31T18:25:20.093Z,3.10
2022-07-31T18:26:54.262Z,3.15
2022-07-31T18:28:26.900Z,3.00
2022-07-31T18:29:59.351Z,2.90
2022-07-31T18:33:08.376Z,3.38
2022-07-31T18:34:40.685Z,3.03
2022-07-31T18:36:13.156Z,3.00
2022-07-31T18:37:45.633Z,3.22
2022-07-31T18:39:18.030Z,3.17
2022-07-31T18:40:50.538Z,3.00
2022-07-31T18:42:24.566Z,3.17
2022-07-31T18:43:57.779Z,3.25
2022-07-31T18:47:02.631Z,3.00
2022-07-31T18:48:35.452Z,3.20
2022-07-31T18:50:58.152Z,3.28
2022-07-31T18:52:00.605Z,3.30
2022-07-31T18:53:33.838Z,3.07
2022-07-31T18:56:38.598Z,3.45
2022-07-31T18:58:10.925Z,3.00
2022-07-31T18:59:43.512Z,3.30
2022-07-31T19:01:16.175Z,3.45
2022-07-31T19:02:48.609Z,3.38
2022-07-31T19:04:22.921Z,3.63
2022-07-31T19:07:27.996Z,3.55
2022-07-31T19:09:00.452Z,4.07
2022-07-31T19:10:34.269Z,3.40
2022-07-31T19:12:08.492Z,3.70
2022-07-31T19:13:41.193Z,3.75
2022-07-31T19:15:13.858Z,3.93
2022-07-31T19:16:46.226Z,3.58
2022-07-31T19:18:27.885Z,3.80
2022-07-31T19:20:02.262Z,3.78
2022-07-31T19:21:43.868Z,3.55
2022-07-31T19:23:17.812Z,3.70
2022-07-31T19:24:51.153Z,3.78
2022-07-31T19:26:23.335Z,3.78
2022-07-31T19:27:55.714Z,3.60
2022-07-31T19:29:28.201Z,3.80
2022-07-31T19:31:00.941Z,3.58
2022-07-31T19:32:33.330Z,3.67
2022-07-31T19:34:05.552Z,4.03
2022-07-31T19:35:56.913Z,4.13
2022-07-31T19:37:30.371Z,4.32
2022-07-31T19:39:02.737Z,4.28
2022-07-31T20:22:24.274Z,4.28
2022-07-31T20:23:58.017Z,4.50
2022-07-31T20:25:30.089Z,4.50
2022-07-31T20:27:02.251Z,4.53
2022-07-31T20:28:34.681Z,4.10
2022-07-31T20:30:07.788Z,3.83
2022-07-31T20:31:39.906Z,4.10
2022-07-31T20:33:13.387Z,3.80
2022-07-31T20:34:45.707Z,4.30
2022-07-31T20:36:17.878Z,3.95
2022-07-31T20:37:50.176Z,3.90
2022-07-31T20:39:33.371Z,4.05
2022-07-31T20:41:06.912Z,4.20
2022-07-31T20:42:39.065Z,3.60
2022-07-31T20:44:11.183Z,4.00
2022-07-31T20:45:44.781Z,3.60
2022-07-31T20:47:18.101Z,3.70
2022-07-31T20:48:52.668Z,3.78
2022-07-31T20:50:25.502Z,3.70
2022-07-31T20:51:57.667Z,4.57
2022-07-31T20:55:04.426Z,3.85
2022-07-31T20:58:08.457Z,3.50
2022-07-31T20:59:40.537Z,3.88
2022-07-31T21:01:12.970Z,3.90
2022-07-31T21:02:46.905Z,3.85
2022-07-31T21:04:22.206Z,3.88
2022-07-31T21:05:54.333Z,4.00
2022-07-31T21:07:26.610Z,3.90
2022-07-31T21:08:58.734Z,4.03
2022-07-31T21:10:36.791Z,4.85
2022-07-31T21:12:10.078Z,4.05
2022-07-31T21:15:28.526Z,4.00
2022-07-31T21:17:06.542Z,4.18
2022-07-31T21:18:43.061Z,3.90
2022-07-31T21:20:16.075Z,6.45
2022-07-31T21:21:48.359Z,4.50
2022-07-31T21:23:24.373Z,4.33
2022-07-31T21:24:56.886Z,4.18
2022-07-31T21:26:29.705Z,4.05
2022-07-31T21:28:02.012Z,4.03
2022-07-31T21:29:34.395Z,4.13
2022-07-31T21:31:06.711Z,4.47
2022-07-31T21:32:40.292Z,4.28
2022-07-31T21:34:12.556Z,4.18
2022-07-31T21:35:47.983Z,4.10
2022-07-31T21:37:20.311Z,4.28
2022-07-31T21:38:55.198Z,3.80
2022-07-31T21:40:27.486Z,4.22
2022-07-31T21:42:02.577Z,3.90
2022-07-31T21:43:43.384Z,3.90
2022-07-31T21:45:27.478Z,3.97
2022-07-31T21:47:15.225Z,3.95
2022-07-31T21:48:49.410Z,4.07
2022-07-31T21:50:28.815Z,4.20
2022-07-31T21:52:02.299Z,4.05
2022-07-31T21:53:34.618Z,3.85
2022-07-31T21:55:07.406Z,4.50
2022-07-31T21:56:42.402Z,4.10
2022-07-31T21:58:14.607Z,4.40
2022-07-31T21:59:46.663Z,4.38
2022-07-31T22:01:19.560Z,4.30
2022-07-31T22:02:51.740Z,3.75
2022-07-31T22:04:34.637Z,4.22
2022-07-31T22:06:26.342Z,4.05
2022-07-31T22:07:58.540Z,4.43
2022-07-31T22:09:30.637Z,4.07
2022-07-31T22:11:02.765Z,4.03
2022-07-31T22:12:35.313Z,4.10
2022-07-31T22:14:09.047Z,4.22
2022-07-31T22:15:58.263Z,4.25
2022-07-31T22:17:32.754Z,3.85
2022-07-31T22:19:05.075Z,4.03
2022-07-31T22:20:37.541Z,4.30
2022-07-31T22:22:10.665Z,4.25
2022-07-31T22:23:42.939Z,4.30
2022-07-31T22:25:15.809Z,4.00
2022-07-31T22:27:08.771Z,4.00
2022-07-31T22:28:41.581Z,4.13
2022-07-31T22:30:14.158Z,4.00